This is the latest recevied weather packets stored in our database for station/object R6DH-11. If no packets are shown the sender has not sent any weather packets the latest 10 day(s).
| Time | Temp. | Humidity | Pressure | Rain* | Wind** | Luminosity | Snow |
|---|---|---|---|---|---|---|---|
| 1777344616 | 2.78° C | 66% | 1018.9 hPa | - | - | - | - |
| 1777343716 | 2.22° C | 68% | 1018.8 hPa | - | - | - | - |
| 1777342816 | 1.67° C | 69% | 1018.7 hPa | - | - | - | - |
| 1777341916 | 1.67° C | 68% | 1018.8 hPa | - | - | - | - |
| 1777341015 | 2.22° C | 68% | 1018.9 hPa | - | - | - | - |
| 1777340115 | 2.22° C | 67% | 1018.8 hPa | - | - | - | - |
| 1777339215 | 2.22° C | 68% | 1018.7 hPa | - | - | - | - |
| 1777338315 | 2.22° C | 67% | 1018.9 hPa | - | - | - | - |
| 1777337415 | 2.22° C | 68% | 1018.9 hPa | - | - | - | - |
| 1777336515 | 2.78° C | 66% | 1018.8 hPa | - | - | - | - |
| 1777335614 | 2.22° C | 67% | 1018.7 hPa | - | - | - | - |
| 1777334715 | 2.78° C | 67% | 1018.8 hPa | - | - | - | - |
| 1777333814 | 2.78° C | 67% | 1018.9 hPa | - | - | - | - |
| 1777332914 | 2.78° C | 66% | 1018.9 hPa | - | - | - | - |
| 1777332014 | 3.33° C | 66% | 1018.8 hPa | - | - | - | - |
| 1777331114 | 3.33° C | 65% | 1018.9 hPa | - | - | - | - |
| 1777329314 | 3.33° C | 66% | 1019.2 hPa | - | - | - | - |
| 1777328420 | 3.89° C | 64% | 1019.2 hPa | - | - | - | - |
| 1777327513 | 3.89° C | 64% | 1019.1 hPa | - | - | - | - |
| 1777326613 | 4.44° C | 63% | 1019.2 hPa | - | - | - | - |
| 1777325713 | 4.44° C | 63% | 1019.1 hPa | - | - | - | - |
| 1777323909 | 3.33° C | 61% | 1017.2 hPa | - | - | - | - |
| 1777323008 | 5° C | 60% | 1019.1 hPa | - | - | - | - |
| 1777322108 | 5° C | 58% | 1019.1 hPa | - | - | - | - |
| 1777321208 | 5.56° C | 58% | 1018.9 hPa | - | - | - | - |
* Rain since midnight (hover to see other rain measurements)
** Current wind speed in m/s (hover to see current wind gust speed)